Time;durP1;ratioP1;P1;durP2;ratioP2;P2;SDS_P1;SDS_P2;PMS_P1;PMS_P2;Temp;Humidity;BMP_temperature;BMP_pressure;BME280_temperature;BME280_humidity;BME280_pressure;Samples;Min_cycle;Max_cycle;Signal;HPM_P1;HPM_P2
2023/11/09 00:00:41;;;;;;;3.85;1.98;;;;;;;7.74;100.00;99841.19;5025053;28;20124;-75
2023/11/09 00:03:10;;;;;;;4.38;1.70;;;;;;;7.75;100.00;99840.19;5020399;28;20037;-75
2023/11/09 00:05:35;;;;;;;3.35;1.70;;;;;;;7.79;100.00;99838.84;5041197;28;20508;-74
2023/11/09 00:08:00;;;;;;;3.50;1.87;;;;;;;7.90;100.00;99843.84;5028655;28;20026;-74
2023/11/09 00:10:26;;;;;;;4.27;1.73;;;;;;;7.94;100.00;99828.41;5008670;28;20073;-74
2023/11/09 00:12:53;;;;;;;5.57;1.95;;;;;;;7.93;100.00;99824.06;5024953;28;20029;-74
2023/11/09 00:15:22;;;;;;;2.47;1.55;;;;;;;7.92;100.00;99806.47;5008697;28;20630;-75
2023/11/09 00:17:48;;;;;;;7.57;2.17;;;;;;;8.00;100.00;99799.28;5007893;28;20098;-74
2023/11/09 00:20:17;;;;;;;2.97;1.67;;;;;;;7.92;100.00;99790.53;5021173;28;20128;-74
2023/11/09 00:22:43;;;;;;;1.98;1.60;;;;;;;7.79;100.00;99770.59;5011012;28;20034;-74
2023/11/09 00:25:17;;;;;;;4.07;1.77;;;;;;;7.90;100.00;99780.06;5009237;28;20164;-74
2023/11/09 00:27:42;;;;;;;5.47;1.80;;;;;;;7.88;100.00;99783.88;5012054;28;20493;-74
2023/11/09 00:30:08;;;;;;;4.43;1.67;;;;;;;7.84;100.00;99775.41;5013505;28;20037;-75
2023/11/09 00:32:34;;;;;;;3.03;1.55;;;;;;;8.00;100.00;99786.00;5019257;28;20037;-74
2023/11/09 00:34:59;;;;;;;9.20;1.77;;;;;;;7.84;100.00;99778.06;4995188;28;20033;-74
2023/11/09 00:37:28;;;;;;;5.33;1.80;;;;;;;7.90;100.00;99793.34;5005378;28;20641;-74
2023/11/09 00:39:54;;;;;;;6.80;1.92;;;;;;;7.93;100.00;99790.34;5014697;28;20037;-74
2023/11/09 00:42:21;;;;;;;3.17;2.05;;;;;;;8.00;100.00;99801.97;5007902;28;20088;-74
2023/11/09 00:44:47;;;;;;;4.55;2.17;;;;;;;7.99;100.00;99787.03;5007981;28;20060;-74
2023/11/09 00:47:12;;;;;;;4.72;2.20;;;;;;;7.97;100.00;99794.31;5020125;28;20124;-75
2023/11/09 00:49:38;;;;;;;4.50;1.87;;;;;;;7.91;100.00;99797.66;5027654;28;20033;-74
2023/11/09 00:52:03;;;;;;;3.50;2.10;;;;;;;7.83;100.00;99781.72;5007814;28;20036;-75
2023/11/09 00:54:28;;;;;;;2.72;1.65;;;;;;;7.90;100.00;99806.63;5017125;28;20022;-74
2023/11/09 00:56:54;;;;;;;6.53;2.33;;;;;;;7.98;100.00;99793.34;5006033;28;20034;-74
2023/11/09 00:59:19;;;;;;;5.87;2.00;;;;;;;8.07;100.00;99795.97;5021357;28;20025;-75
2023/11/09 01:01:45;;;;;;;6.30;2.28;;;;;;;7.92;100.00;99783.38;5018545;28;20037;-74
2023/11/09 01:04:10;;;;;;;3.23;1.90;;;;;;;7.87;100.00;99787.56;5007875;28;20133;-74
2023/11/09 01:06:36;;;;;;;3.47;2.10;;;;;;;7.76;100.00;99794.03;5028771;28;20026;-75
2023/11/09 01:09:01;;;;;;;10.73;2.10;;;;;;;7.94;100.00;99815.13;5011130;28;20034;-75
2023/11/09 01:11:27;;;;;;;6.00;2.07;;;;;;;7.82;100.00;99806.66;5028168;28;20035;-74
2023/11/09 01:13:52;;;;;;;6.03;2.27;;;;;;;7.95;100.00;99801.63;5009254;28;20143;-74
2023/11/09 01:16:21;;;;;;;6.80;2.77;;;;;;;7.94;100.00;99809.81;5017770;28;20072;-75
2023/11/09 01:18:47;;;;;;;5.47;2.40;;;;;;;7.86;100.00;99794.66;5010076;28;20041;-74
2023/11/09 01:21:13;;;;;;;9.32;2.58;;;;;;;7.97;100.00;99804.97;5010361;28;20037;-75
2023/11/09 01:23:40;;;;;;;4.72;2.50;;;;;;;7.92;100.00;99801.97;5023172;28;20537;-74
2023/11/09 01:26:06;;;;;;;5.68;2.08;;;;;;;7.93;100.00;99794.84;5010056;28;20086;-74
2023/11/09 01:28:32;;;;;;;;;;;;;;;7.81;100.00;99789.84;4995666;28;20073;-74
2023/11/09 01:30:58;;;;;;;5.30;2.33;;;;;;;7.83;100.00;99787.03;5023262;28;20349;-74
2023/11/09 01:33:23;;;;;;;4.55;2.30;;;;;;;7.94;100.00;99792.03;5015078;28;20103;-74
2023/11/09 01:35:48;;;;;;;6.17;2.60;;;;;;;7.96;100.00;99783.84;5006749;28;20029;-74
2023/11/09 01:38:14;;;;;;;5.27;2.73;;;;;;;8.02;100.00;99786.66;5012239;28;20037;-74
2023/11/09 01:40:39;;;;;;;3.20;2.60;;;;;;;7.95;100.00;99780.38;5006712;28;20030;-74
2023/11/09 01:43:12;;;;;;;5.07;3.10;;;;;;;7.93;100.00;99777.06;5006561;28;20084;-74
2023/11/09 01:45:38;;;;;;;5.10;2.30;;;;;;;8.02;100.00;99778.69;5006854;28;20045;-74
2023/11/09 01:48:04;;;;;;;4.78;3.10;;;;;;;8.08;100.00;99768.38;5022780;28;20017;-74
2023/11/09 01:50:29;;;;;;;3.63;2.95;;;;;;;7.97;100.00;99770.41;5031406;28;20036;-74
2023/11/09 01:52:55;;;;;;;6.68;2.67;;;;;;;8.03;100.00;99774.22;5014650;28;20112;-74
2023/11/09 01:55:21;;;;;;;3.73;3.07;;;;;;;8.03;100.00;99771.56;5014758;28;20608;-75
2023/11/09 01:57:48;;;;;;;6.95;3.03;;;;;;;7.95;100.00;99772.41;5014599;28;20084;-74
2023/11/09 02:00:14;;;;;;;4.15;3.15;;;;;;;7.98;100.00;99756.13;5007377;28;20418;-74
2023/11/09 02:02:40;;;;;;;5.75;4.15;;;;;;;7.84;100.00;99754.16;5014728;28;20437;-74
2023/11/09 02:05:08;;;;;;;6.10;3.30;;;;;;;7.90;100.00;99761.44;5006486;28;20038;-74
2023/11/09 02:07:36;;;;;;;4.72;3.15;;;;;;;8.04;100.00;99760.75;5028614;28;20506;-74
2023/11/09 02:10:02;;;;;;;8.15;4.07;;;;;;;7.99;100.00;99755.13;5023667;28;20128;-74
2023/11/09 02:12:28;;;;;;;7.30;3.20;;;;;;;7.99;100.00;99754.31;5032051;28;20033;-75
2023/11/09 02:14:56;;;;;;;5.53;3.88;;;;;;;8.07;100.00;99751.59;5026251;28;20018;-74
2023/11/09 02:17:22;;;;;;;7.22;4.18;;;;;;;8.06;100.00;99738.50;5028403;28;20099;-74
2023/11/09 02:19:48;;;;;;;5.90;4.18;;;;;;;7.95;100.00;99737.03;5025517;28;20505;-75
2023/11/09 02:22:13;;;;;;;6.70;4.05;;;;;;;7.99;100.00;99733.84;5029978;28;20033;-75
2023/11/09 02:24:39;;;;;;;5.88;3.80;;;;;;;8.01;100.00;99731.03;5046540;28;20040;-75
2023/11/09 02:27:05;;;;;;;4.43;3.53;;;;;;;8.06;100.00;99715.41;5036184;28;20510;-75
2023/11/09 02:29:31;;;;;;;5.80;4.03;;;;;;;7.94;100.00;99712.28;5033966;28;20036;-75
2023/11/09 02:31:57;;;;;;;4.27;3.73;;;;;;;7.99;100.00;99712.59;5023757;28;20040;-74
2023/11/09 02:34:23;;;;;;;;;;;;;;;8.10;100.00;99714.06;5022943;28;21209;-75
2023/11/09 02:36:50;;;;;;;6.63;4.40;;;;;;;7.93;100.00;99692.00;5008715;28;19944;-76
2023/11/09 02:39:16;;;;;;;11.82;4.10;;;;;;;8.01;100.00;99713.25;5017599;28;20026;-76
2023/11/09 02:41:42;;;;;;;5.38;4.40;;;;;;;7.91;100.00;99696.66;5001812;28;20038;-74
2023/11/09 02:44:07;;;;;;;4.28;3.50;;;;;;;8.07;100.00;99700.28;5025474;28;20036;-76
2023/11/09 02:46:33;;;;;;;7.82;3.63;;;;;;;8.04;100.00;99690.81;5040897;28;20037;-76
2023/11/09 02:48:59;;;;;;;5.35;3.63;;;;;;;8.14;100.00;99685.28;5008894;28;20175;-76
2023/11/09 02:51:24;;;;;;;5.53;5.03;;;;;;;8.07;100.00;99686.97;5022252;28;20418;-75
2023/11/09 02:53:50;;;;;;;8.27;4.73;;;;;;;8.19;100.00;99691.75;5022623;28;20033;-75
2023/11/09 02:56:15;;;;;;;5.50;4.20;;;;;;;8.13;100.00;99686.31;5024884;28;20179;-75
2023/11/09 02:58:41;;;;;;;6.35;4.63;;;;;;;8.07;100.00;99684.31;5005697;28;20042;-74
2023/11/09 03:01:06;;;;;;;5.00;3.92;;;;;;;8.03;100.00;99676.69;5008650;28;20572;-75
2023/11/09 03:03:32;;;;;;;6.90;4.07;;;;;;;8.15;100.00;99684.31;5039367;28;20032;-75
2023/11/09 03:05:57;;;;;;;9.87;4.77;;;;;;;7.97;100.00;99669.41;5038815;28;20040;-76
2023/11/09 03:08:24;;;;;;;6.78;4.13;;;;;;;8.19;100.00;99677.63;5016778;28;20029;-75
2023/11/09 03:10:49;;;;;;;5.95;4.55;;;;;;;8.16;100.00;99677.97;4999305;23;20609;-78
2023/11/09 03:13:15;;;;;;;5.45;3.80;;;;;;;8.14;100.00;99670.16;4947801;28;20483;-77
2023/11/09 03:15:44;;;;;;;6.57;4.13;;;;;;;8.20;100.00;99671.31;4929142;29;20047;-77
2023/11/09 03:18:09;;;;;;;7.15;4.32;;;;;;;8.07;100.00;99660.41;4929629;29;20032;-77
2023/11/09 03:20:35;;;;;;;5.90;3.50;;;;;;;8.13;100.00;99660.53;4970178;28;20125;-77
2023/11/09 03:23:02;;;;;;;8.02;4.13;;;;;;;8.07;100.00;99652.44;4944951;28;20372;-78
2023/11/09 03:25:28;;;;;;;7.30;4.40;;;;;;;8.14;100.00;99658.69;4915033;29;20043;-77
2023/11/09 03:27:53;;;;;;;4.50;3.72;;;;;;;8.28;100.00;99646.50;4923732;29;20019;-76
2023/11/09 03:30:18;;;;;;;5.77;4.40;;;;;;;8.12;100.00;99631.47;4947893;28;20046;-77
2023/11/09 03:32:44;;;;;;;9.63;4.17;;;;;;;8.18;100.00;99634.25;4919895;29;20028;-77
2023/11/09 03:35:09;;;;;;;5.30;4.20;;;;;;;8.16;100.00;99622.97;4927278;29;20028;-78
2023/11/09 03:37:35;;;;;;;6.60;3.87;;;;;;;8.12;100.00;99636.78;4916193;29;20024;-77
2023/11/09 03:40:05;;;;;;;;;;;;;;;8.26;100.00;99636.03;4911281;28;20563;-77
2023/11/09 03:42:30;;;;;;;5.63;3.58;;;;;;;8.20;100.00;99634.09;4945396;28;20268;-77
2023/11/09 03:44:56;;;;;;;5.68;3.67;;;;;;;8.12;100.00;99618.16;4911973;28;20035;-77
2023/11/09 03:47:23;;;;;;;6.57;4.23;;;;;;;8.31;100.00;99619.56;4932502;29;20038;-78
2023/11/09 03:49:49;;;;;;;5.38;4.00;;;;;;;8.09;100.00;99607.91;4919554;28;20468;-77
2023/11/09 03:52:14;;;;;;;6.70;4.23;;;;;;;8.21;100.00;99609.97;4915126;28;20071;-77
2023/11/09 03:54:39;;;;;;;5.77;3.93;;;;;;;8.25;100.00;99613.94;4909682;28;20675;-77
2023/11/09 03:57:05;;;;;;;4.53;3.80;;;;;;;8.27;100.00;99607.63;4927728;29;20388;-77
2023/11/09 03:59:30;;;;;;;5.57;3.83;;;;;;;8.16;100.00;99598.22;4946957;28;20031;-77
2023/11/09 04:01:56;;;;;;;5.40;3.70;;;;;;;8.28;100.00;99610.09;4922048;28;20028;-77
2023/11/09 04:04:21;;;;;;;5.32;4.18;;;;;;;8.21;100.00;99596.69;4915460;29;20032;-78
2023/11/09 04:06:47;;;;;;;4.53;3.30;;;;;;;8.39;100.00;99601.72;4957977;28;20027;-77
2023/11/09 04:09:14;;;;;;;6.32;3.80;;;;;;;8.32;100.00;99592.81;4946693;28;20098;-77
2023/11/09 04:11:40;;;;;;;5.68;3.80;;;;;;;8.30;100.00;99596.63;4921432;29;20028;-77
2023/11/09 04:14:05;;;;;;;4.35;3.65;;;;;;;8.34;100.00;99588.13;4905691;29;20050;-78
2023/11/09 04:16:30;;;;;;;6.70;3.90;;;;;;;8.27;100.00;99581.88;4928384;29;20040;-77
2023/11/09 04:18:56;;;;;;;6.43;3.87;;;;;;;8.23;100.00;99589.34;4917340;29;20036;-77
2023/11/09 04:21:21;;;;;;;7.20;3.77;;;;;;;8.32;100.00;99578.69;4934397;29;20768;-77
2023/11/09 04:23:49;;;;;;;7.63;3.78;;;;;;;8.28;100.00;99577.38;4926714;29;20884;-78
2023/11/09 04:26:16;;;;;;;5.13;3.55;;;;;;;8.21;100.00;99571.94;4930582;29;20028;-77
2023/11/09 04:28:41;;;;;;;3.92;3.47;;;;;;;8.35;100.00;99576.47;4926498;29;20028;-77
2023/11/09 04:31:10;;;;;;;5.30;4.03;;;;;;;8.37;100.00;99577.13;4932788;29;20081;-77
2023/11/09 04:33:36;;;;;;;4.90;3.65;;;;;;;8.31;100.00;99566.38;4946245;28;20044;-76
2023/11/09 04:36:08;;;;;;;4.13;3.63;;;;;;;8.36;100.00;99570.19;4928384;29;20410;-78
2023/11/09 04:38:38;;;;;;;7.35;4.40;;;;;;;8.40;100.00;99566.16;4938997;29;20031;-77
2023/11/09 04:41:10;;;;;;;4.80;4.13;;;;;;;8.41;100.00;99562.53;4932713;28;20047;-78
2023/11/09 04:43:37;;;;;;;8.05;3.97;;;;;;;8.45;100.00;99563.81;4946135;28;20035;-78
2023/11/09 04:46:06;;;;;;;6.05;4.15;;;;;;;8.49;100.00;99558.13;4927061;29;20212;-77
2023/11/09 04:48:33;;;;;;;6.53;4.28;;;;;;;8.48;100.00;99553.84;4932388;28;20062;-78
2023/11/09 04:51:04;;;;;;;5.93;4.07;;;;;;;8.45;100.00;99545.22;4927055;29;20024;-77
2023/11/09 04:53:30;;;;;;;4.88;3.83;;;;;;;8.37;100.00;99536.41;4934729;28;20039;-78
2023/11/09 04:56:07;;;;;;;6.40;4.22;;;;;;;8.45;100.00;99537.22;4939312;29;20042;-77
2023/11/09 04:58:48;;;;;;;8.52;4.05;;;;;;;8.31;100.00;99543.28;4943183;28;20425;-77
2023/11/09 05:06:49;;;;;;;4.32;3.63;;;;;;;8.46;100.00;99527.41;4946302;28;20860;-79
2023/11/09 05:09:15;;;;;;;4.93;3.80;;;;;;;8.38;100.00;99525.63;4912299;28;20040;-78
2023/11/09 05:11:41;;;;;;;3.78;3.08;;;;;;;8.57;100.00;99526.13;4936055;28;20031;-78
2023/11/09 05:14:06;;;;;;;3.75;3.15;;;;;;;8.42;100.00;99521.59;4912224;29;20036;-79
2023/11/09 05:16:32;;;;;;;4.63;3.03;;;;;;;8.49;100.00;99527.03;4937677;28;20122;-80
2023/11/09 05:18:57;;;;;;;5.03;4.00;;;;;;;8.41;100.00;99524.47;4911778;29;20039;-81
2023/11/09 05:21:23;;;;;;;4.40;3.60;;;;;;;8.43;100.00;99517.97;4936151;28;20028;-80
2023/11/09 05:23:49;;;;;;;4.18;3.05;;;;;;;8.42;100.00;99529.59;4924301;29;20082;-79
2023/11/09 05:26:15;;;;;;;4.30;3.50;;;;;;;8.50;100.00;99536.69;4935730;28;20040;-81
2023/11/09 05:28:40;;;;;;;4.68;3.58;;;;;;;8.47;100.00;99528.22;4939601;28;20024;-81
2023/11/09 05:31:08;;;;;;;4.20;3.75;;;;;;;8.45;100.00;99525.75;4916337;29;20107;-81
2023/11/09 05:33:34;;;;;;;6.70;4.45;;;;;;;8.48;100.00;99525.41;4908243;28;20097;-80
2023/11/09 05:36:00;;;;;;;4.85;4.18;;;;;;;8.40;100.00;99518.28;4927742;29;20094;-81
2023/11/09 05:38:26;;;;;;;5.07;4.05;;;;;;;8.45;100.00;99526.59;4917777;28;20484;-81
2023/11/09 05:40:52;;;;;;;6.75;4.38;;;;;;;8.48;100.00;99520.09;4918605;29;20047;-80
2023/11/09 05:43:17;;;;;;;6.70;4.35;;;;;;;8.54;100.00;99513.19;4927647;29;20097;-77
2023/11/09 05:45:44;;;;;;;5.97;5.22;;;;;;;8.60;100.00;99517.81;4942759;29;20047;-80
2023/11/09 05:48:09;;;;;;;5.28;4.55;;;;;;;8.56;100.00;99513.84;4926492;29;20066;-79
2023/11/09 05:50:35;;;;;;;8.10;5.10;;;;;;;8.53;100.00;99511.56;4915928;28;20481;-79
2023/11/09 05:53:01;;;;;;;5.78;4.82;;;;;;;8.56;100.00;99511.19;4915001;29;20048;-78
2023/11/09 05:55:30;;;;;;;5.93;4.82;;;;;;;8.64;100.00;99513.81;4942678;29;21065;-79
2023/11/09 05:57:58;;;;;;;6.65;5.00;;;;;;;8.60;100.00;99515.16;4926135;29;20039;-80
2023/11/09 06:00:28;;;;;;;5.85;4.53;;;;;;;8.53;100.00;99517.72;4932897;28;20032;-79
2023/11/09 06:02:53;;;;;;;5.18;4.47;;;;;;;8.61;100.00;99508.81;4923713;29;20042;-80
2023/11/09 06:05:19;;;;;;;5.27;4.40;;;;;;;8.55;100.00;99507.72;4931964;28;20024;-78
2023/11/09 06:07:44;;;;;;;5.65;4.65;;;;;;;8.69;100.00;99502.63;4906663;29;20279;-77
2023/11/09 06:10:11;;;;;;;9.57;5.87;;;;;;;8.69;100.00;99510.59;4926577;29;20032;-77
2023/11/09 06:12:37;;;;;;;6.28;5.32;;;;;;;8.60;100.00;99501.84;4914946;29;20063;-77
2023/11/09 06:15:03;;;;;;;7.13;6.13;;;;;;;8.68;100.00;99501.75;4916675;28;20047;-77
2023/11/09 06:17:28;;;;;;;6.63;5.32;;;;;;;8.68;100.00;99492.97;4941706;29;20047;-77
2023/11/09 06:19:53;;;;;;;6.70;5.03;;;;;;;8.62;100.00;99481.22;4925718;29;20027;-78
2023/11/09 06:22:19;;;;;;;9.00;5.43;;;;;;;8.61;100.00;99483.03;4942150;28;20032;-77
2023/11/09 06:24:44;;;;;;;11.82;5.60;;;;;;;8.61;100.00;99477.72;4948902;28;20035;-77
2023/11/09 06:27:10;;;;;;;7.17;5.07;;;;;;;8.76;100.00;99479.59;4895185;29;20075;-78
2023/11/09 06:29:35;;;;;;;8.90;5.30;;;;;;;8.61;100.00;99476.88;4926113;29;20047;-78
2023/11/09 06:32:00;;;;;;;6.77;5.20;;;;;;;8.68;100.00;99479.66;4933415;29;20035;-78
2023/11/09 06:34:26;;;;;;;8.07;5.57;;;;;;;8.67;100.00;99473.53;4938604;28;20122;-77
2023/11/09 06:36:52;;;;;;;7.32;5.35;;;;;;;8.63;100.00;99486.34;4933531;29;20032;-77
2023/11/09 06:39:18;;;;;;;13.53;6.60;;;;;;;8.68;100.00;99483.13;4935204;28;20460;-77
2023/11/09 06:41:45;;;;;;;7.00;5.57;;;;;;;8.70;100.00;99486.44;4927524;28;20341;-78
2023/11/09 06:44:12;;;;;;;7.20;4.45;;;;;;;8.54;100.00;99484.75;4940784;29;20097;-78
2023/11/09 06:46:38;;;;;;;5.70;4.57;;;;;;;8.62;100.00;99482.03;4934195;29;20479;-77
2023/11/09 06:49:07;;;;;;;7.57;5.00;;;;;;;8.66;100.00;99490.47;4937670;29;20039;-76
2023/11/09 06:51:36;;;;;;;11.20;4.43;;;;;;;8.67;100.00;99486.81;4940016;28;20042;-77
2023/11/09 06:54:02;;;;;;;8.18;5.10;;;;;;;8.64;100.00;99477.38;4896649;29;20028;-77
2023/11/09 06:56:29;;;;;;;;;;;;;;;8.72;100.00;99495.09;4932813;28;20082;-76
2023/11/09 06:58:54;;;;;;;7.13;4.72;;;;;;;8.73;100.00;99488.75;4924311;29;20311;-77
2023/11/09 07:01:20;;;;;;;7.78;4.90;;;;;;;8.58;100.00;99477.25;4920942;29;20043;-78
2023/11/09 07:03:46;;;;;;;6.95;4.47;;;;;;;8.54;100.00;99481.28;4923230;29;20060;-77
2023/11/09 07:06:11;;;;;;;5.97;4.57;;;;;;;8.63;100.00;99486.34;4925120;29;20073;-78
2023/11/09 07:08:37;;;;;;;7.40;4.50;;;;;;;8.72;100.00;99489.75;4925829;29;20089;-77
2023/11/09 07:11:02;;;;;;;5.00;3.93;;;;;;;8.63;100.00;99480.19;4937265;28;20046;-76
2023/11/09 07:13:28;;;;;;;6.43;4.53;;;;;;;8.70;100.00;99481.13;4930360;29;20131;-76
2023/11/09 07:15:53;;;;;;;5.72;3.95;;;;;;;8.62;100.00;99474.06;4915557;29;20038;-77
2023/11/09 07:18:19;;;;;;;7.33;4.43;;;;;;;8.71;100.00;99481.94;4944575;28;20032;-77
2023/11/09 07:20:45;;;;;;;6.03;3.92;;;;;;;8.59;100.00;99473.59;4934207;29;20032;-78
2023/11/09 07:23:11;;;;;;;4.78;4.30;;;;;;;8.62;100.00;99470.59;4925441;28;20040;-77
2023/11/09 07:25:36;;;;;;;7.72;4.85;;;;;;;8.84;100.00;99488.31;4930258;29;20034;-77
2023/11/09 07:28:08;;;;;;;6.63;4.10;;;;;;;8.82;100.00;99474.34;4928597;29;20629;-77
2023/11/09 07:30:34;;;;;;;6.43;4.05;;;;;;;8.61;100.00;99464.41;4923405;29;20094;-76
2023/11/09 07:33:01;;;;;;;6.20;4.53;;;;;;;8.72;100.00;99478.31;4911987;28;20407;-77
2023/11/09 07:35:27;;;;;;;6.03;4.63;;;;;;;8.68;100.00;99461.84;4925504;28;20028;-76
2023/11/09 07:37:53;;;;;;;5.90;4.20;;;;;;;8.72;100.00;99473.78;4926722;28;20109;-76
2023/11/09 07:40:19;;;;;;;5.85;4.47;;;;;;;8.66;100.00;99463.88;4922542;28;20488;-77
2023/11/09 07:42:45;;;;;;;4.07;3.43;;;;;;;8.73;100.00;99469.28;4918635;29;20056;-77
2023/11/09 07:45:11;;;;;;;5.47;4.25;;;;;;;8.72;100.00;99457.84;4922740;28;20070;-77
2023/11/09 07:47:37;;;;;;;8.15;3.75;;;;;;;8.55;100.00;99456.34;4942286;28;20066;-77
2023/11/09 07:50:04;;;;;;;5.80;4.47;;;;;;;8.53;100.00;99463.69;4924989;29;20131;-78
2023/11/09 07:52:30;;;;;;;6.45;4.75;;;;;;;8.60;100.00;99473.41;4944882;28;20026;-80
2023/11/09 07:54:56;;;;;;;5.65;4.38;;;;;;;8.70;100.00;99464.34;4925983;29;20396;-80
2023/11/09 07:57:21;;;;;;;5.25;4.43;;;;;;;8.67;100.00;99460.22;4950018;28;20028;-79
2023/11/09 07:59:47;;;;;;;6.17;4.40;;;;;;;8.68;100.00;99464.50;4937588;28;20131;-78
2023/11/09 08:02:12;;;;;;;7.07;4.33;;;;;;;8.63;100.00;99458.91;4912014;29;20036;-78
2023/11/09 08:04:41;;;;;;;5.35;4.30;;;;;;;8.82;100.00;99466.38;4928725;29;20066;-77
2023/11/09 08:07:07;;;;;;;5.95;4.65;;;;;;;8.83;100.00;99467.22;4926155;28;20044;-77
2023/11/09 08:09:34;;;;;;;5.32;3.97;;;;;;;8.83;100.00;99462.72;4928349;29;20058;-78
2023/11/09 08:12:00;;;;;;;4.90;3.70;;;;;;;8.82;100.00;99465.53;4944183;29;20110;-79
2023/11/09 08:14:25;;;;;;;5.47;3.90;;;;;;;8.83;100.00;99464.56;4934298;28;20122;-78
2023/11/09 08:16:51;;;;;;;6.70;4.20;;;;;;;8.66;100.00;99454.06;4924444;29;20079;-78
2023/11/09 08:19:16;;;;;;;4.03;3.20;;;;;;;8.78;100.00;99461.59;4930291;29;20411;-78
2023/11/09 08:21:41;;;;;;;8.43;3.17;;;;;;;8.89;100.00;99466.47;4928150;29;20039;-77
2023/11/09 08:24:08;;;;;;;4.17;3.17;;;;;;;8.94;100.00;99460.59;4943939;29;20031;-78
2023/11/09 08:26:34;;;;;;;4.07;3.45;;;;;;;8.83;100.00;99457.38;4944136;28;20036;-78
2023/11/09 08:28:59;;;;;;;3.78;2.92;;;;;;;8.85;100.00;99458.03;4928825;29;20026;-77
2023/11/09 08:31:25;;;;;;;5.75;3.83;;;;;;;8.70;100.00;99449.19;4927915;29;20082;-77
2023/11/09 08:33:53;;;;;;;4.45;2.92;;;;;;;8.84;100.00;99459.03;4934978;29;20030;-78
2023/11/09 08:36:18;;;;;;;3.42;3.13;;;;;;;8.77;100.00;99462.59;4928234;28;20044;-78
2023/11/09 08:38:44;;;;;;;2.97;2.33;;;;;;;8.75;100.00;99462.78;4936789;28;20030;-77
2023/11/09 08:41:09;;;;;;;3.40;3.10;;;;;;;8.76;100.00;99463.63;4927584;29;20031;-77
2023/11/09 08:43:35;;;;;;;3.27;2.97;;;;;;;8.75;100.00;99468.09;4943778;29;20318;-77
2023/11/09 08:46:04;;;;;;;;;;;;;;;8.74;100.00;99469.13;4928056;29;20035;-77
2023/11/09 08:48:30;;;;;;;3.92;3.22;;;;;;;8.72;100.00;99457.00;4927647;29;19914;-77
2023/11/09 08:51:00;;;;;;;;;;;;;;;8.81;100.00;99467.38;4927726;29;20062;-78
2023/11/09 08:53:25;;;;;;;3.60;3.03;;;;;;;8.74;100.00;99463.81;4927917;29;19950;-77
2023/11/09 08:55:51;;;;;;;3.88;3.10;;;;;;;8.76;100.00;99451.16;4927659;29;20392;-77
2023/11/09 08:58:17;;;;;;;4.10;3.15;;;;;;;8.74;100.00;99457.66;4937401;29;20027;-78
2023/11/09 09:00:42;;;;;;;3.13;2.72;;;;;;;8.85;100.00;99465.19;4918465;29;20105;-76
2023/11/09 09:03:08;;;;;;;3.77;3.00;;;;;;;8.92;100.00;99465.28;4910188;29;20043;-77
2023/11/09 09:05:33;;;;;;;3.00;2.70;;;;;;;8.95;100.00;99472.91;4943301;29;20036;-77
2023/11/09 09:07:59;;;;;;;3.27;2.80;;;;;;;8.88;100.00;99456.84;4926925;29;20028;-77
2023/11/09 09:10:27;;;;;;;;;;;;;;;8.73;100.00;99459.47;4932073;29;20318;-78
2023/11/09 09:12:53;;;;;;;2.72;2.53;;;;;;;8.75;100.00;99448.66;4908184;29;19922;-78
2023/11/09 09:15:20;;;;;;;3.75;3.08;;;;;;;8.96;100.00;99456.75;4927761;28;20478;-77
2023/11/09 09:17:47;;;;;;;3.50;3.00;;;;;;;8.94;100.00;99450.78;4927430;29;20514;-78
2023/11/09 09:20:18;;;;;;;3.92;2.60;;;;;;;8.83;100.00;99448.59;4925698;29;20032;-78
2023/11/09 09:22:45;;;;;;;2.88;2.40;;;;;;;8.88;100.00;99455.00;4943551;28;20031;-78
2023/11/09 09:25:10;;;;;;;4.43;2.08;;;;;;;8.87;100.00;99452.50;4927607;29;20020;-78
2023/11/09 09:27:43;;;;;;;3.08;2.72;;;;;;;8.81;100.00;99446.09;4948603;28;20599;-77
2023/11/09 09:30:13;;;;;;;2.38;1.80;;;;;;;8.82;100.00;99439.75;4934096;28;20039;-79
2023/11/09 09:32:43;;;;;;;2.33;1.88;;;;;;;8.94;100.00;99445.44;4931472;29;20488;-78
2023/11/09 09:35:12;;;;;;;2.10;1.65;;;;;;;8.88;100.00;99443.53;4926055;29;20035;-78
2023/11/09 09:37:39;;;;;;;2.58;2.13;;;;;;;8.94;100.00;99448.09;4943193;29;20034;-78
2023/11/09 09:40:15;;;;;;;2.08;1.77;;;;;;;8.97;100.00;99447.75;4946859;28;20047;-77
2023/11/09 09:42:50;;;;;;;2.15;1.58;;;;;;;9.06;100.00;99454.66;4946860;28;20032;-78
2023/11/09 09:45:21;;;;;;;2.92;2.30;;;;;;;8.93;100.00;99451.78;4929353;29;20040;-77
2023/11/09 09:47:49;;;;;;;2.35;1.63;;;;;;;9.04;100.00;99447.84;4917391;28;20208;-77
2023/11/09 09:50:16;;;;;;;1.65;1.45;;;;;;;8.93;100.00;99443.00;4974734;28;20028;-77
2023/11/09 09:52:48;;;;;;;2.03;1.40;;;;;;;8.94;100.00;99444.63;4928320;29;20031;-76
2023/11/09 09:55:14;;;;;;;1.85;1.50;;;;;;;9.12;100.00;99463.72;4927126;29;20147;-77
2023/11/09 09:57:41;;;;;;;1.83;1.40;;;;;;;9.20;100.00;99450.31;4920257;29;20070;-77
2023/11/09 10:00:23;;;;;;;1.90;1.27;;;;;;;8.92;100.00;99433.34;4939125;29;20054;-79
2023/11/09 10:02:56;;;;;;;1.38;1.27;;;;;;;9.15;100.00;99452.69;4938695;28;20110;-78
2023/11/09 10:05:27;;;;;;;2.15;1.58;;;;;;;9.03;100.00;99444.34;4928203;28;20038;-77
2023/11/09 10:08:07;;;;;;;2.00;1.73;;;;;;;8.91;100.00;99440.50;4928910;28;20031;-77
2023/11/09 10:10:47;;;;;;;1.75;1.65;;;;;;;9.03;100.00;99446.19;4904381;28;20047;-77
2023/11/09 10:13:13;;;;;;;1.83;1.50;;;;;;;9.07;100.00;99456.28;4935831;29;20055;-77
2023/11/09 10:15:54;;;;;;;1.50;1.40;;;;;;;9.02;100.00;99447.22;4936455;28;20035;-77
2023/11/09 10:18:27;;;;;;;2.85;2.00;;;;;;;9.25;100.00;99458.56;4940634;29;20118;-76
2023/11/09 10:20:57;;;;;;;3.88;2.33;;;;;;;9.32;100.00;99449.81;4933619;29;20523;-77
2023/11/09 10:23:23;;;;;;;2.92;2.42;;;;;;;9.17;100.00;99439.19;4932519;29;20425;-77
2023/11/09 10:25:48;;;;;;;2.78;2.50;;;;;;;9.14;100.00;99440.41;4909601;29;20089;-76
2023/11/09 10:28:14;;;;;;;2.83;2.33;;;;;;;9.17;100.00;99444.53;4926683;29;20063;-77
2023/11/09 10:30:41;;;;;;;3.05;2.38;;;;;;;9.16;100.00;99446.38;4926061;29;20031;-77
2023/11/09 10:33:08;;;;;;;2.60;2.40;;;;;;;9.33;100.00;99441.66;4926165;29;20056;-77
2023/11/09 10:35:38;;;;;;;3.55;2.58;;;;;;;9.27;100.00;99440.56;4943663;28;20023;-76
2023/11/09 10:38:09;;;;;;;2.33;2.13;;;;;;;9.25;100.00;99434.59;4916473;28;20040;-77
2023/11/09 10:40:35;;;;;;;4.30;2.65;;;;;;;9.36;100.00;99437.78;4925451;29;20027;-77
2023/11/09 10:43:01;;;;;;;;;;;;;;;9.21;100.00;99424.50;4925580;28;20074;-77
2023/11/09 10:45:36;;;;;;;3.25;2.83;;;;;;;9.48;100.00;99425.63;4952303;28;19952;-77
2023/11/09 10:48:17;;;;;;;7.82;3.00;;;;;;;9.20;100.00;99415.72;4942342;29;20031;-77
2023/11/09 10:50:47;;;;;;;4.25;3.22;;;;;;;9.17;100.00;99408.06;4931582;29;20106;-78
2023/11/09 10:53:19;;;;;;;3.97;3.55;;;;;;;9.39;100.00;99421.44;4935432;28;20054;-77
2023/11/09 10:55:53;;;;;;;4.03;3.58;;;;;;;9.29;100.00;99419.91;4933924;29;20127;-76
2023/11/09 10:58:23;;;;;;;4.90;3.35;;;;;;;9.31;100.00;99417.03;4927324;29;20098;-77
2023/11/09 11:00:57;;;;;;;3.70;3.22;;;;;;;9.30;100.00;99415.41;4942547;29;20495;-76
2023/11/09 11:03:27;;;;;;;4.60;3.67;;;;;;;9.34;100.00;99418.50;4940122;29;20047;-76
2023/11/09 11:06:02;;;;;;;4.68;3.72;;;;;;;9.50;100.00;99429.78;4940403;29;20050;-76
2023/11/09 11:08:35;;;;;;;4.65;3.80;;;;;;;9.28;100.00;99415.59;4902839;28;20563;-77
2023/11/09 11:11:02;;;;;;;5.40;4.30;;;;;;;9.47;100.00;99421.34;4933485;29;20107;-76
2023/11/09 11:13:30;;;;;;;7.10;4.50;;;;;;;9.39;100.00;99405.44;4917898;29;20105;-76
2023/11/09 11:16:16;;;;;;;5.13;4.18;;;;;;;9.53;100.00;99407.28;4922856;29;20591;-75
2023/11/09 11:19:27;;;;;;;5.53;5.00;;;;;;;9.51;100.00;99406.63;4920378;29;20122;-76
2023/11/09 11:22:23;;;;;;;8.35;5.05;;;;;;;9.44;100.00;99403.06;4926141;29;20401;-76
2023/11/09 11:25:18;;;;;;;9.30;5.95;;;;;;;9.47;100.00;99400.03;4926174;29;20630;-76
2023/11/09 11:27:55;;;;;;;6.15;5.53;;;;;;;9.55;100.00;99407.88;4933515;29;20117;-76
2023/11/09 11:30:25;;;;;;;7.50;5.55;;;;;;;9.64;100.00;99413.94;4926425;29;20044;-76
2023/11/09 11:32:57;;;;;;;6.85;5.75;;;;;;;9.54;100.00;99413.41;4927491;28;20484;-75
2023/11/09 11:35:38;;;;;;;8.80;6.78;;;;;;;9.68;100.00;99409.88;4928063;29;20044;-76
2023/11/09 11:38:16;;;;;;;7.60;5.78;;;;;;;9.57;100.00;99407.72;4912087;29;20044;-76
2023/11/09 11:40:46;;;;;;;6.95;5.68;;;;;;;9.68;100.00;99418.69;4940504;28;20891;-76